createdAt,value
2022-11-25T00:03:20.701Z,97921.03
2022-11-25T00:08:23.101Z,97926.41
2022-11-25T00:13:25.788Z,97914.91
2022-11-25T00:18:28.556Z,97907.94
2022-11-25T00:23:33.406Z,97901.75
2022-11-25T00:28:36.460Z,97907.88
2022-11-25T00:33:39.737Z,97917.84
2022-11-25T00:38:42.131Z,97910.34
2022-11-25T00:44:03.067Z,97906.84
2022-11-25T00:49:05.559Z,97904.59
2022-11-25T00:54:07.971Z,97907.69
2022-11-25T00:59:10.948Z,97909.63
2022-11-25T01:04:14.351Z,97916.94
2022-11-25T01:09:18.720Z,97923.41
2022-11-25T01:14:22.184Z,97915.53
2022-11-25T01:19:24.804Z,97917.75
2022-11-25T01:24:27.581Z,97912.00
2022-11-25T01:29:30.082Z,97911.13
2022-11-25T01:34:34.723Z,97916.53
2022-11-25T01:39:38.822Z,97914.91
2022-11-25T01:44:43.354Z,97911.84
2022-11-25T01:49:51.729Z,97909.81
2022-11-25T01:55:03.191Z,97908.97
2022-11-25T02:00:07.866Z,97916.63
2022-11-25T02:05:36.908Z,97909.19
2022-11-25T02:10:39.675Z,97916.72
2022-11-25T02:15:42.123Z,97916.91
2022-11-25T02:20:44.613Z,97920.31
2022-11-25T02:25:47.894Z,97928.34
2022-11-25T02:30:53.712Z,97911.59
2022-11-25T02:36:01.804Z,97920.56
2022-11-25T02:41:20.024Z,97914.03
2022-11-25T02:46:28.596Z,97907.03
2022-11-25T02:51:32.726Z,97912.97
2022-11-25T02:56:38.120Z,97910.53
2022-11-25T03:01:40.713Z,97907.84
2022-11-25T03:06:45.343Z,97900.81
2022-11-25T03:12:06.693Z,97892.41
2022-11-25T03:17:09.147Z,97902.91
2022-11-25T03:22:11.658Z,97893.31
2022-11-25T03:27:15.118Z,97887.13
2022-11-25T03:32:17.992Z,97891.75
2022-11-25T03:37:20.982Z,97889.88
2022-11-25T03:42:23.753Z,97899.56
2022-11-25T03:47:26.713Z,97893.41
2022-11-25T03:52:29.233Z,97893.41
2022-11-25T03:57:32.957Z,97888.81
2022-11-25T04:02:35.627Z,97894.97
2022-11-25T04:07:38.112Z,97893.00
2022-11-25T04:12:49.197Z,97889.59
2022-11-25T04:17:56.430Z,97889.59
2022-11-25T04:22:59.347Z,97885.38
2022-11-25T04:28:03.844Z,97885.72
2022-11-25T04:33:09.469Z,97882.59
2022-11-25T04:38:11.904Z,97880.53
2022-11-25T04:43:14.981Z,97874.47
2022-11-25T04:48:35.242Z,97882.09
2022-11-25T04:53:39.096Z,97887.53
2022-11-25T04:59:02.058Z,97878.50
2022-11-25T05:04:05.396Z,97887.81
2022-11-25T05:09:11.290Z,97893.28
2022-11-25T05:14:16.310Z,97894.09
2022-11-25T05:19:18.801Z,97891.72
2022-11-25T05:24:21.345Z,97889.38
2022-11-25T05:29:27.247Z,97889.63
2022-11-25T05:34:31.073Z,97894.75
2022-11-25T05:39:34.053Z,97892.53
2022-11-25T05:44:57.152Z,97903.41
2022-11-25T05:50:02.518Z,97913.44
2022-11-25T05:55:06.736Z,97921.03
2022-11-25T06:00:09.882Z,97922.50
2022-11-25T06:05:19.372Z,97923.25
2022-11-25T06:10:21.779Z,97934.72
2022-11-25T06:15:24.961Z,97930.97
2022-11-25T06:20:30.227Z,97937.22
2022-11-25T06:25:33.654Z,97931.09
2022-11-25T06:30:36.757Z,97949.63
2022-11-25T06:35:48.869Z,97951.16
2022-11-25T06:40:52.418Z,97953.81
2022-11-25T06:46:01.332Z,97958.03
2022-11-25T06:51:06.788Z,97965.75
2022-11-25T06:56:16.164Z,97959.97
2022-11-25T07:01:24.232Z,97962.63
2022-11-25T07:06:27.460Z,97969.53
2022-11-25T07:11:32.586Z,97985.69
2022-11-25T07:16:35.147Z,97977.16
2022-11-25T07:21:37.717Z,97972.75
2022-11-25T07:26:42.027Z,97972.25
2022-11-25T07:31:45.769Z,97974.72
2022-11-25T07:36:50.125Z,97983.59
2022-11-25T07:41:55.757Z,97985.88
2022-11-25T07:46:58.402Z,97999.66
2022-11-25T07:52:02.379Z,98007.44
2022-11-25T07:57:04.804Z,98006.75
2022-11-25T08:02:09.317Z,98018.34
2022-11-25T08:07:12.217Z,98013.66
2022-11-25T08:12:14.711Z,98022.00
2022-11-25T08:17:17.147Z,98028.66
2022-11-25T08:22:19.590Z,98019.88
2022-11-25T08:27:22.020Z,98013.41
2022-11-25T08:32:24.503Z,98017.03
2022-11-25T08:37:27.159Z,98027.03
2022-11-25T08:42:29.821Z,98022.94
2022-11-25T08:47:32.334Z,98020.13
2022-11-25T08:52:34.739Z,98024.13
2022-11-25T08:57:37.212Z,98018.97
2022-11-25T09:02:39.919Z,98029.56
2022-11-25T09:07:42.682Z,98037.88
2022-11-25T09:12:45.405Z,98034.53
2022-11-25T09:17:47.970Z,98035.34
2022-11-25T09:22:50.341Z,98043.88
2022-11-25T09:27:52.807Z,98057.16
2022-11-25T09:32:56.212Z,98059.88
2022-11-25T09:37:58.912Z,98059.03
2022-11-25T09:43:38.176Z,98060.69
2022-11-25T09:49:00.241Z,98047.09
2022-11-25T09:54:13.214Z,98062.13
2022-11-25T09:59:27.733Z,98045.22
2022-11-25T10:04:38.007Z,98047.69
2022-11-25T10:09:40.846Z,98052.16
2022-11-25T10:14:48.352Z,98066.00
2022-11-25T10:19:53.780Z,98067.66
2022-11-25T10:25:00.520Z,98064.97
2022-11-25T10:30:22.174Z,98066.53
2022-11-25T10:35:35.832Z,98062.47
2022-11-25T10:40:38.239Z,98060.00
2022-11-25T10:46:22.549Z,98069.28
2022-11-25T10:51:31.064Z,98064.16
2022-11-25T10:56:44.799Z,98061.09
2022-11-25T11:01:47.320Z,98065.34
2022-11-25T11:06:51.210Z,98072.75
2022-11-25T11:11:53.613Z,98083.56
2022-11-25T11:16:57.527Z,98082.66
2022-11-25T11:22:16.802Z,98083.22
2022-11-25T11:27:25.771Z,98091.94
2022-11-25T11:32:29.398Z,98095.06
2022-11-25T11:37:47.642Z,98116.38
2022-11-25T11:42:58.937Z,98127.81
2022-11-25T11:48:26.427Z,98140.09
2022-11-25T11:53:34.734Z,98137.53
2022-11-25T11:59:06.288Z,98146.56
2022-11-25T12:04:26.328Z,98146.38
2022-11-25T12:09:32.176Z,98139.53
2022-11-25T12:14:46.542Z,98137.28
2022-11-25T12:20:05.993Z,98145.88
2022-11-25T12:25:19.223Z,98152.44
2022-11-25T12:30:24.052Z,98151.44
2022-11-25T12:35:37.663Z,98155.78
2022-11-25T12:40:46.815Z,98159.97
2022-11-25T12:45:58.009Z,98159.19
2022-11-25T12:51:37.932Z,98174.53
2022-11-25T12:57:15.968Z,98179.97
2022-11-25T13:02:37.007Z,98201.72
2022-11-25T13:08:04.051Z,98208.81
2022-11-25T13:13:17.905Z,98217.34
2022-11-25T13:18:26.139Z,98222.66
2022-11-25T13:23:49.971Z,98232.75
2022-11-25T13:28:52.443Z,98239.59
2022-11-25T13:33:58.188Z,98248.88
2022-11-25T13:39:13.099Z,98251.38
2022-11-25T13:44:35.259Z,98262.31
2022-11-25T13:50:18.994Z,98262.47
2022-11-25T13:55:35.526Z,98271.63
2022-11-25T14:00:43.805Z,98280.34
2022-11-25T14:06:05.140Z,98280.47
2022-11-25T14:11:10.757Z,98293.94
2022-11-25T14:16:50.701Z,98298.63
2022-11-25T14:22:05.518Z,98300.69
2022-11-25T14:27:16.684Z,98303.09
2022-11-25T14:32:43.754Z,98311.00
2022-11-25T14:37:51.363Z,98304.22
2022-11-25T14:43:03.300Z,98309.25
2022-11-25T14:48:22.052Z,98325.13
2022-11-25T14:53:25.734Z,98325.59
2022-11-25T14:58:29.534Z,98330.69
2022-11-25T15:03:32.520Z,98333.03
2022-11-25T15:08:44.047Z,98335.09
2022-11-25T15:13:49.518Z,98342.91
2022-11-25T15:18:58.602Z,98354.16
2022-11-25T15:24:21.303Z,98354.75
2022-11-25T15:29:24.882Z,98374.59
2022-11-25T15:34:30.655Z,98386.44
2022-11-25T15:39:33.165Z,98399.47
2022-11-25T15:44:44.347Z,98397.91
2022-11-25T15:50:18.071Z,98403.00
2022-11-25T15:55:39.805Z,98397.72
2022-11-25T16:00:42.351Z,98400.78
2022-11-25T16:05:56.354Z,98401.56
2022-11-25T16:11:09.854Z,98407.72
2022-11-25T16:16:16.873Z,98408.69
2022-11-25T16:21:24.945Z,98416.13
2022-11-25T16:26:29.702Z,98422.56
2022-11-25T16:31:32.198Z,98432.69
2022-11-25T16:36:34.624Z,98426.53
2022-11-25T16:41:37.224Z,98437.16
2022-11-25T16:46:39.661Z,98443.19
2022-11-25T16:51:42.817Z,98449.53
2022-11-25T16:56:45.986Z,98458.53
2022-11-25T17:01:48.504Z,98459.53
2022-11-25T17:07:16.875Z,98485.97
2022-11-25T17:12:29.139Z,98481.44
2022-11-25T17:17:31.898Z,98491.09
2022-11-25T17:22:39.267Z,98500.16
2022-11-25T17:27:42.796Z,98503.63
2022-11-25T17:32:46.407Z,98501.25
2022-11-25T17:37:49.374Z,98517.03
2022-11-25T17:42:52.408Z,98530.03
2022-11-25T17:47:55.102Z,98536.75
2022-11-25T17:52:57.795Z,98546.38
2022-11-25T17:58:01.668Z,98546.78
2022-11-25T18:03:09.094Z,98551.78
2022-11-25T18:08:11.478Z,98562.63
2022-11-25T18:13:15.464Z,98566.72
2022-11-25T18:18:22.233Z,98584.59
2022-11-25T18:23:24.752Z,98588.38
2022-11-25T18:28:29.926Z,98584.34
2022-11-25T18:33:32.559Z,98584.91
2022-11-25T18:38:38.000Z,98591.22
2022-11-25T18:43:40.365Z,98604.47
2022-11-25T18:48:43.050Z,98618.06
2022-11-25T18:53:45.383Z,98616.78
2022-11-25T18:58:52.022Z,98625.31
2022-11-25T19:03:55.492Z,98644.06
2022-11-25T19:08:58.322Z,98646.00
2022-11-25T19:14:30.170Z,98645.00
2022-11-25T19:19:32.783Z,98657.06
2022-11-25T19:24:35.505Z,98664.78
2022-11-25T19:29:42.382Z,98675.19
2022-11-25T19:34:47.906Z,98679.09
2022-11-25T19:39:51.640Z,98686.47
2022-11-25T19:44:54.034Z,98693.06
2022-11-25T19:50:00.462Z,98703.56
2022-11-25T19:55:14.319Z,98711.75
2022-11-25T20:00:18.917Z,98715.25
2022-11-25T20:05:32.216Z,98723.41
2022-11-25T20:10:34.905Z,98734.66
2022-11-25T20:15:39.592Z,98745.09
2022-11-25T20:20:42.878Z,98740.44
2022-11-25T20:25:47.413Z,98761.34
2022-11-25T20:30:51.118Z,98770.59
2022-11-25T20:36:07.406Z,98775.22
2022-11-25T20:41:12.761Z,98785.69
2022-11-25T20:46:23.890Z,98796.88
2022-11-25T20:51:26.675Z,98802.34
2022-11-25T20:56:30.058Z,98805.44
2022-11-25T21:01:32.520Z,98804.69
2022-11-25T21:06:40.968Z,98818.63
2022-11-25T21:11:43.802Z,98822.53
2022-11-25T21:16:47.308Z,98832.63
2022-11-25T21:21:51.899Z,98835.34
2022-11-25T21:26:56.008Z,98837.31
2022-11-25T21:31:58.890Z,98842.72
2022-11-25T21:37:02.717Z,98846.22
2022-11-25T21:42:15.395Z,98846.63
2022-11-25T21:47:21.181Z,98844.28
2022-11-25T21:52:23.554Z,98862.09
2022-11-25T21:57:28.633Z,98858.19
2022-11-25T22:02:31.298Z,98871.75
2022-11-25T22:07:33.734Z,98867.88
2022-11-25T22:12:40.990Z,98869.38
2022-11-25T22:17:44.976Z,98868.97
2022-11-25T22:22:47.392Z,98877.56
2022-11-25T22:27:50.097Z,98883.75
2022-11-25T22:33:13.385Z,98899.28
2022-11-25T22:38:19.091Z,98898.50
2022-11-25T22:43:29.671Z,98899.28
2022-11-25T22:48:37.329Z,98907.03
2022-11-25T22:53:39.722Z,98907.38
2022-11-25T22:58:42.086Z,98919.34
2022-11-25T23:03:45.245Z,98920.78
2022-11-25T23:08:47.630Z,98925.41
2022-11-25T23:13:49.985Z,98928.41
2022-11-25T23:18:52.365Z,98929.16
2022-11-25T23:23:55.313Z,98936.88
2022-11-25T23:28:57.832Z,98925.72
2022-11-25T23:34:00.316Z,98926.88
2022-11-25T23:39:03.776Z,98936.91
2022-11-25T23:44:23.961Z,98936.59
2022-11-25T23:49:33.303Z,98934.66
2022-11-25T23:54:44.193Z,98938.53
2022-11-25T23:59:47.918Z,98925.78
